Time;durP1;ratioP1;P1;durP2;ratioP2;P2;SDS_P1;SDS_P2;PMS_P1;PMS_P2;Temp;Humidity;BMP_temperature;BMP_pressure;BME280_temperature;BME280_humidity;BME280_pressure;Samples;Min_cycle;Max_cycle;Signal;HPM_P1;HPM_P2
2022/06/27 00:00:37;;;;;;;6.38;5.35;;;;;;;16.43;82.05;101430.69;4992916;28;20031;-69
2022/06/27 00:03:02;;;;;;;9.65;6.30;;;;;;;16.43;82.21;101441.69;4995586;28;20052;-70
2022/06/27 00:05:28;;;;;;;9.73;5.65;;;;;;;16.45;81.94;101437.78;5009396;28;20050;-69
2022/06/27 00:07:53;;;;;;;9.93;6.00;;;;;;;16.46;82.49;101433.16;5012376;28;20037;-69
2022/06/27 00:10:19;;;;;;;7.38;5.63;;;;;;;16.46;81.44;101430.41;5006639;28;20414;-69
2022/06/27 00:12:44;;;;;;;8.05;5.85;;;;;;;16.47;81.69;101433.03;4992755;28;20312;-70
2022/06/27 00:15:10;;;;;;;9.93;6.57;;;;;;;16.48;82.13;101442.16;4992351;28;20460;-70
2022/06/27 00:17:36;;;;;;;11.10;5.97;;;;;;;16.48;82.24;101437.53;4995514;28;20044;-69
2022/06/27 00:20:02;;;;;;;8.88;5.38;;;;;;;16.48;82.14;101440.28;5008250;28;20034;-69
2022/06/27 00:22:29;;;;;;;7.93;5.72;;;;;;;16.49;82.07;101439.25;4992456;28;20378;-69
2022/06/27 00:24:54;;;;;;;9.93;6.45;;;;;;;16.47;82.16;101437.66;4990617;28;20501;-69
2022/06/27 00:27:20;;;;;;;9.48;6.82;;;;;;;16.47;81.20;101455.03;5007427;28;20065;-69
2022/06/27 00:29:45;;;;;;;8.70;6.75;;;;;;;16.47;81.28;101457.75;4992289;28;20031;-70
2022/06/27 00:32:10;;;;;;;8.82;6.95;;;;;;;16.46;81.88;101458.78;5003989;28;20117;-69
2022/06/27 00:34:36;;;;;;;10.43;7.53;;;;;;;16.45;83.17;101469.88;4992128;28;20133;-69
2022/06/27 00:37:02;;;;;;;10.25;6.80;;;;;;;16.43;83.01;101460.91;4992701;28;20038;-70
2022/06/27 00:39:27;;;;;;;12.02;6.70;;;;;;;16.41;83.67;101463.78;5006723;28;20133;-69
2022/06/27 00:41:53;;;;;;;11.43;6.63;;;;;;;16.40;83.77;101458.41;4992018;28;20113;-69
2022/06/27 00:44:36;;;;;;;10.35;6.22;;;;;;;16.37;83.33;101456.84;5009048;28;20424;-69
2022/06/27 00:47:03;;;;;;;9.00;6.03;;;;;;;16.35;83.19;101458.81;4992920;28;20035;-70
2022/06/27 00:49:29;;;;;;;10.60;6.25;;;;;;;16.37;83.19;101465.06;4993032;28;20556;-70
2022/06/27 00:51:55;;;;;;;8.57;5.95;;;;;;;16.39;82.91;101468.53;4992312;28;20114;-70
2022/06/27 00:54:22;;;;;;;9.15;5.63;;;;;;;16.41;82.83;101473.88;4974413;28;20033;-70
2022/06/27 00:56:48;;;;;;;13.35;5.90;;;;;;;16.42;82.59;101472.91;4991958;28;20073;-69
2022/06/27 00:59:14;;;;;;;10.00;6.75;;;;;;;16.42;82.68;101479.28;4990596;28;20409;-70
2022/06/27 01:01:40;;;;;;;10.20;6.57;;;;;;;16.42;83.13;101475.66;4990450;28;20042;-70
2022/06/27 01:04:06;;;;;;;8.00;6.38;;;;;;;16.43;83.04;101477.41;4995466;28;20580;-69
2022/06/27 01:06:31;;;;;;;10.48;6.90;;;;;;;16.43;82.95;101474.66;5006230;28;20046;-69
2022/06/27 01:08:58;;;;;;;8.23;6.47;;;;;;;16.43;82.46;101474.66;4991792;28;20030;-69
2022/06/27 01:11:23;;;;;;;8.95;6.35;;;;;;;16.43;82.99;101474.66;4990327;28;20388;-69
2022/06/27 01:13:49;;;;;;;9.15;6.10;;;;;;;16.42;82.82;101472.91;5006578;28;20050;-70
2022/06/27 01:16:15;;;;;;;9.38;6.93;;;;;;;16.42;83.48;101479.28;4991778;28;20409;-70
2022/06/27 01:18:42;;;;;;;9.60;6.80;;;;;;;16.41;83.34;101474.75;4989913;28;20030;-70
2022/06/27 01:21:07;;;;;;;14.18;6.15;;;;;;;16.42;83.82;101481.16;4987515;28;20118;-69
2022/06/27 01:23:34;;;;;;;9.40;6.28;;;;;;;16.41;83.31;101484.88;5006681;28;20141;-69
2022/06/27 01:26:02;;;;;;;9.65;6.18;;;;;;;16.41;84.18;101493.13;4990222;28;20110;-69
2022/06/27 01:28:28;;;;;;;9.73;6.50;;;;;;;16.41;83.78;101477.50;4989915;28;20030;-69
2022/06/27 01:30:55;;;;;;;9.57;6.40;;;;;;;16.40;84.35;101478.50;4989849;28;20437;-69
2022/06/27 01:33:21;;;;;;;11.80;6.28;;;;;;;16.38;83.81;101475.03;5010346;28;20030;-70
2022/06/27 01:35:46;;;;;;;10.35;6.55;;;;;;;16.39;83.83;101476.78;4989280;28;20120;-70
2022/06/27 01:38:12;;;;;;;8.52;7.05;;;;;;;16.38;83.70;101464.06;5006054;28;20374;-70
2022/06/27 01:40:40;;;;;;;11.88;7.30;;;;;;;16.39;84.19;101464.94;4989179;28;20042;-69
2022/06/27 01:43:05;;;;;;;11.82;7.10;;;;;;;16.39;83.41;101452.06;4990903;28;20046;-69
2022/06/27 01:45:33;;;;;;;11.77;7.60;;;;;;;16.38;83.29;101443.97;4990147;28;20498;-69
2022/06/27 01:48:00;;;;;;;13.88;7.88;;;;;;;16.37;83.49;101433.97;4990006;28;20428;-70
2022/06/27 01:50:29;;;;;;;12.13;9.02;;;;;;;16.37;82.95;101434.88;4988746;28;20022;-69
2022/06/27 01:52:56;;;;;;;11.60;7.43;;;;;;;16.37;83.88;101436.72;5005623;28;20036;-70
2022/06/27 01:55:24;;;;;;;11.65;7.47;;;;;;;16.38;83.43;101441.22;5004579;28;20446;-69
2022/06/27 01:57:51;;;;;;;12.98;7.80;;;;;;;16.39;83.73;101442.97;4989333;28;20506;-70
2022/06/27 02:00:16;;;;;;;9.13;6.78;;;;;;;16.39;83.86;101434.72;4990664;28;20392;-69
2022/06/27 02:02:57;;;;;;;9.52;7.18;;;;;;;16.37;84.13;101422.97;5008423;28;20042;-70
2022/06/27 02:05:23;;;;;;;14.05;8.38;;;;;;;16.36;83.17;101416.63;5004811;28;20181;-69
2022/06/27 02:07:52;;;;;;;13.25;7.93;;;;;;;16.37;83.51;101425.72;4989165;28;20413;-70
2022/06/27 02:10:18;;;;;;;9.30;7.30;;;;;;;16.32;83.59;101418.78;4988024;28;20035;-70
2022/06/27 02:12:44;;;;;;;15.82;7.70;;;;;;;16.33;83.71;101426.00;5005609;28;20402;-70
2022/06/27 02:15:11;;;;;;;11.38;8.10;;;;;;;16.31;83.58;101424.38;4989171;28;20065;-69
2022/06/27 02:17:37;;;;;;;13.93;8.32;;;;;;;16.29;83.33;101418.19;5005386;28;20147;-69
2022/06/27 02:20:08;;;;;;;10.57;6.80;;;;;;;16.27;83.25;101418.31;5005158;28;20172;-69
2022/06/27 02:22:34;;;;;;;11.40;8.02;;;;;;;16.27;83.30;101414.69;5005330;28;20034;-69
2022/06/27 02:24:59;;;;;;;15.90;9.23;;;;;;;16.24;83.61;101406.72;4990857;28;20049;-70
2022/06/27 02:27:28;;;;;;;19.25;8.63;;;;;;;16.21;83.32;101409.72;5005131;28;20049;-70
2022/06/27 02:29:54;;;;;;;13.98;9.38;;;;;;;16.18;83.37;101394.41;5005066;28;20030;-70
2022/06/27 02:32:20;;;;;;;15.98;9.85;;;;;;;16.16;83.66;101401.91;4994611;28;20040;-69
2022/06/27 02:34:48;;;;;;;15.63;9.73;;;;;;;16.16;83.10;101403.78;4989254;28;20120;-69
2022/06/27 02:37:14;;;;;;;12.48;8.60;;;;;;;16.18;83.48;101404.50;4988858;28;20044;-70
2022/06/27 02:39:40;;;;;;;13.93;8.07;;;;;;;16.19;83.79;101404.38;4987559;28;20026;-70
2022/06/27 02:42:08;;;;;;;14.55;8.32;;;;;;;16.18;84.08;101399.91;4988532;28;20042;-69
2022/06/27 02:44:34;;;;;;;12.48;8.15;;;;;;;16.17;84.23;101398.13;4989927;28;20110;-69
2022/06/27 02:46:59;;;;;;;10.38;7.78;;;;;;;16.17;84.17;101400.03;4990459;28;20138;-69
2022/06/27 02:49:25;;;;;;;11.32;8.30;;;;;;;16.15;84.13;101393.81;4988254;28;20113;-70
2022/06/27 02:52:24;;;;;;;11.88;8.68;;;;;;;16.13;84.04;101379.31;4988763;28;20058;-69
2022/06/27 02:55:10;;;;;;;14.55;9.15;;;;;;;16.07;83.62;101376.13;4987627;28;20034;-69
2022/06/27 02:57:58;;;;;;;12.32;8.13;;;;;;;16.05;83.41;101369.91;5004737;28;20033;-69
2022/06/27 03:00:27;;;;;;;10.27;8.20;;;;;;;16.00;83.83;101374.06;4989851;28;20039;-70
2022/06/27 03:02:53;;;;;;;12.20;8.70;;;;;;;15.95;83.65;101370.84;4993292;28;20400;-70
2022/06/27 03:05:25;;;;;;;13.63;9.20;;;;;;;15.89;84.07;101366.72;5003710;28;20065;-70
2022/06/27 03:07:51;;;;;;;13.45;8.63;;;;;;;15.83;83.86;101359.03;5008273;28;20489;-70
2022/06/27 03:10:17;;;;;;;13.20;8.90;;;;;;;15.78;84.02;101358.56;4994425;28;20026;-70
2022/06/27 03:12:45;;;;;;;18.77;9.25;;;;;;;15.74;83.77;101368.06;4988067;28;20442;-69
2022/06/27 03:15:11;;;;;;;12.00;7.68;;;;;;;15.68;83.54;101363.97;5004376;28;20026;-70
2022/06/27 03:17:37;;;;;;;13.85;9.00;;;;;;;15.61;84.34;101362.72;4989531;28;20044;-69
2022/06/27 03:20:21;;;;;;;13.20;10.02;;;;;;;15.56;84.13;101359.50;4989284;28;20088;-69
2022/06/27 03:22:57;;;;;;;11.98;8.93;;;;;;;15.50;84.00;101366.38;5004395;28;20030;-69
2022/06/27 03:25:22;;;;;;;12.25;8.23;;;;;;;15.49;83.56;101369.28;5003968;28;20136;-70
2022/06/27 03:27:49;;;;;;;12.30;8.05;;;;;;;15.45;83.86;101365.03;4987797;28;20474;-69
2022/06/27 03:30:15;;;;;;;9.93;7.43;;;;;;;15.42;83.52;101363.41;4991555;28;20010;-69
2022/06/27 03:32:41;;;;;;;13.07;8.55;;;;;;;15.37;84.40;101362.94;5005292;28;20095;-69
2022/06/27 03:35:09;;;;;;;14.13;8.57;;;;;;;15.33;83.84;101364.19;4987448;28;20533;-69
2022/06/27 03:37:35;;;;;;;14.55;10.35;;;;;;;15.27;84.12;101351.88;4987622;28;20065;-69
2022/06/27 03:40:00;;;;;;;13.35;10.57;;;;;;;15.25;84.20;101364.84;4987490;28;20066;-69
2022/06/27 03:42:28;;;;;;;16.45;9.77;;;;;;;15.22;83.95;101359.63;4982043;28;20180;-70
2022/06/27 03:44:53;;;;;;;11.88;9.32;;;;;;;15.20;83.63;101360.72;4987567;28;20101;-69
2022/06/27 03:47:19;;;;;;;12.35;8.88;;;;;;;15.15;83.86;101352.03;5003334;28;20073;-69
2022/06/27 03:50:03;;;;;;;20.33;9.25;;;;;;;15.09;84.27;101360.78;4989886;28;20054;-68
2022/06/27 03:52:33;;;;;;;12.90;8.73;;;;;;;15.05;83.64;101362.88;4988386;28;20405;-69
2022/06/27 03:54:59;;;;;;;14.15;10.32;;;;;;;15.00;84.41;101360.53;5003689;28;20042;-69
2022/06/27 03:57:24;;;;;;;15.73;10.82;;;;;;;15.01;84.41;101369.63;4987217;28;20076;-70
2022/06/27 03:59:50;;;;;;;14.25;10.30;;;;;;;14.95;84.21;101371.00;4987629;28;20129;-70
2022/06/27 04:02:16;;;;;;;12.70;8.50;;;;;;;14.96;83.73;101369.13;4991400;28;20033;-69
2022/06/27 04:05:00;;;;;;;14.75;9.63;;;;;;;14.94;84.21;101385.72;4989378;28;20137;-70
2022/06/27 04:07:26;;;;;;;13.07;8.68;;;;;;;14.93;83.90;101392.19;5003713;28;20035;-70
2022/06/27 04:09:51;;;;;;;15.23;10.13;;;;;;;14.89;84.82;101382.47;5003412;28;20113;-70
2022/06/27 04:12:17;;;;;;;14.00;9.23;;;;;;;14.91;84.41;101368.63;4987412;28;20028;-69
2022/06/27 04:15:01;;;;;;;17.10;9.20;;;;;;;14.99;84.81;101371.63;4989115;28;20146;-69
2022/06/27 04:17:59;;;;;;;14.32;9.75;;;;;;;15.10;84.74;101381.69;4989654;28;20045;-69
2022/06/27 04:20:44;;;;;;;16.30;9.38;;;;;;;15.22;84.81;101375.19;4977811;28;20046;-70
2022/06/27 04:23:11;;;;;;;15.55;9.27;;;;;;;15.32;84.47;101376.16;5003541;28;20121;-70
2022/06/27 04:26:08;;;;;;;18.10;9.95;;;;;;;15.44;84.78;101357.81;4997158;28;20156;-70
2022/06/27 04:28:35;;;;;;;15.00;10.32;;;;;;;15.56;85.08;101351.28;5002204;28;20071;-69
2022/06/27 04:31:01;;;;;;;17.10;11.32;;;;;;;15.70;84.79;101342.75;5003730;28;20053;-70
2022/06/27 04:33:27;;;;;;;17.05;11.85;;;;;;;15.79;84.44;101343.84;4995397;28;20057;-69
2022/06/27 04:35:52;;;;;;;26.52;14.27;;;;;;;15.79;85.27;101336.47;4989857;28;20124;-70
2022/06/27 04:38:19;;;;;;;18.20;12.65;;;;;;;15.78;86.70;101322.91;5006897;28;20077;-69
2022/06/27 04:41:18;;;;;;;21.30;14.32;;;;;;;15.71;87.55;101307.97;5012117;28;20531;-70
2022/06/27 04:43:46;;;;;;;20.90;13.77;;;;;;;15.74;86.00;101296.75;4974826;28;20026;-70
2022/06/27 04:46:12;;;;;;;20.23;13.32;;;;;;;15.82;86.06;101305.19;4990572;28;20030;-70
2022/06/27 04:48:56;;;;;;;16.70;12.55;;;;;;;15.91;85.67;101315.34;4992532;28;20116;-70
2022/06/27 04:51:21;;;;;;;18.02;12.85;;;;;;;15.99;85.49;101321.03;5006110;28;20117;-70
2022/06/27 04:53:48;;;;;;;17.65;12.98;;;;;;;16.08;85.04;101313.84;4991487;28;20034;-69
2022/06/27 04:56:14;;;;;;;17.80;12.50;;;;;;;16.15;84.85;101326.03;4992334;28;20084;-69
2022/06/27 04:58:39;;;;;;;21.45;12.50;;;;;;;16.20;85.05;101339.38;4990059;28;20033;-70
2022/06/27 05:01:05;;;;;;;15.52;11.57;;;;;;;16.22;85.57;101345.56;4990220;28;20097;-69
2022/06/27 05:03:40;;;;;;;16.13;11.32;;;;;;;16.25;86.13;101332.44;4990316;28;20034;-70
2022/06/27 05:06:14;;;;;;;20.00;13.30;;;;;;;16.26;85.25;101331.44;5005652;28;20125;-70
2022/06/27 05:08:39;;;;;;;21.27;13.05;;;;;;;16.27;84.87;101326.81;5000374;28;20129;-70
2022/06/27 05:11:05;;;;;;;15.50;12.13;;;;;;;16.27;85.20;101319.47;4989042;28;20030;-69
2022/06/27 05:13:31;;;;;;;15.27;11.82;;;;;;;16.26;85.48;101314.97;4991820;28;20042;-70
2022/06/27 05:15:58;;;;;;;19.73;12.82;;;;;;;16.26;85.19;101303.13;4989778;28;20508;-69
2022/06/27 05:18:24;;;;;;;18.52;12.45;;;;;;;16.23;85.02;101307.03;4989718;28;20026;-70
2022/06/27 05:20:49;;;;;;;19.52;12.07;;;;;;;16.24;85.17;101314.25;4991727;28;20126;-70
2022/06/27 05:23:15;;;;;;;18.92;12.05;;;;;;;16.25;85.30;101329.72;4992891;28;20038;-70
2022/06/27 05:25:43;;;;;;;16.52;12.82;;;;;;;16.25;85.30;101332.44;4993553;28;20038;-70
2022/06/27 05:28:10;;;;;;;17.65;12.20;;;;;;;16.26;85.46;101330.56;5024479;28;20025;-70
2022/06/27 05:30:35;;;;;;;18.30;11.85;;;;;;;16.28;85.52;101328.56;4992085;28;20125;-70
2022/06/27 05:33:04;;;;;;;17.52;12.35;;;;;;;16.25;86.30;101329.72;5007692;28;20045;-70
2022/06/27 05:35:30;;;;;;;17.80;11.85;;;;;;;16.25;85.67;101334.34;5004929;28;20084;-70
2022/06/27 05:37:56;;;;;;;13.93;11.00;;;;;;;16.27;85.32;101365.25;4973648;28;20053;-70
2022/06/27 05:40:22;;;;;;;15.95;11.30;;;;;;;16.31;86.10;101394.19;5006077;28;20027;-70
2022/06/27 05:42:49;;;;;;;16.48;11.45;;;;;;;16.33;85.96;101403.19;5005927;28;20039;-69
2022/06/27 05:45:16;;;;;;;16.52;12.18;;;;;;;16.41;85.31;101418.97;5005152;28;20390;-69
2022/06/27 05:48:14;;;;;;;19.60;12.95;;;;;;;16.50;85.66;101421.75;4989697;28;20539;-70
2022/06/27 05:50:55;;;;;;;22.98;12.38;;;;;;;16.56;84.92;101431.38;5005410;28;20093;-70
2022/06/27 05:53:22;;;;;;;19.27;13.07;;;;;;;16.61;85.35;101442.81;4989513;28;20054;-69
2022/06/27 05:55:47;;;;;;;18.38;13.88;;;;;;;16.67;85.48;101450.50;4988863;28;20401;-69
2022/06/27 05:58:13;;;;;;;15.88;12.30;;;;;;;16.71;85.37;101459.34;5005456;28;20037;-69
2022/06/27 06:00:39;;;;;;;19.42;13.25;;;;;;;16.72;84.70;101450.13;5008946;28;20122;-70
2022/06/27 06:03:07;;;;;;;18.30;13.88;;;;;;;16.72;84.62;101456.50;4991237;28;20048;-70
2022/06/27 06:05:33;;;;;;;20.73;13.68;;;;;;;16.70;84.98;101442.00;5000645;28;20148;-70
2022/06/27 06:08:02;;;;;;;18.63;14.52;;;;;;;16.69;85.72;101433.88;5019972;28;20030;-70
2022/06/27 06:10:28;;;;;;;20.02;14.25;;;;;;;16.66;86.11;101421.28;4990390;28;20461;-69
2022/06/27 06:12:54;;;;;;;21.08;14.85;;;;;;;16.63;85.89;101424.31;5008281;28;20133;-70
2022/06/27 06:15:20;;;;;;;20.00;15.50;;;;;;;16.64;85.28;101422.44;5001739;28;20125;-69
2022/06/27 06:17:45;;;;;;;22.98;14.55;;;;;;;16.67;84.96;101427.66;4993996;28;20117;-70
2022/06/27 06:20:11;;;;;;;20.88;14.32;;;;;;;16.72;83.84;101431.75;5004946;28;20028;-69
2022/06/27 06:22:38;;;;;;;24.27;15.07;;;;;;;16.76;84.80;101430.50;4990200;28;20045;-70
2022/06/27 06:25:04;;;;;;;18.27;13.90;;;;;;;16.81;84.45;101441.06;4988285;28;20106;-69
2022/06/27 06:27:30;;;;;;;16.42;13.27;;;;;;;16.84;84.10;101454.53;5004631;28;20038;-70
2022/06/27 06:29:56;;;;;;;18.77;13.25;;;;;;;16.89;84.52;101468.75;4971619;28;20081;-70
2022/06/27 06:32:22;;;;;;;20.20;14.43;;;;;;;16.90;85.29;101456.75;4993729;28;20444;-70
2022/06/27 06:34:49;;;;;;;21.45;15.75;;;;;;;16.91;86.45;101449.34;4989400;28;20096;-70
2022/06/27 06:37:17;;;;;;;16.92;14.15;;;;;;;16.93;85.03;101450.97;5003678;28;20054;-70
2022/06/27 06:39:43;;;;;;;22.30;15.68;;;;;;;16.97;85.49;101455.19;5003693;28;20038;-69
2022/06/27 06:42:10;;;;;;;21.02;16.27;;;;;;;16.99;85.79;101444.06;5004011;28;20033;-70
2022/06/27 06:44:45;;;;;;;22.48;14.77;;;;;;;17.01;84.57;101433.78;5003416;28;20045;-70
2022/06/27 06:47:30;;;;;;;20.75;16.15;;;;;;;16.98;84.03;101407.44;4989537;28;20050;-70
2022/06/27 06:50:05;;;;;;;25.58;18.17;;;;;;;16.92;84.32;101399.72;4987924;28;20393;-69
2022/06/27 06:52:30;;;;;;;24.52;18.20;;;;;;;16.90;85.42;101381.66;4996237;28;20038;-70
2022/06/27 06:54:55;;;;;;;25.77;17.50;;;;;;;16.92;84.90;101387.88;4998885;28;20492;-69
2022/06/27 06:57:21;;;;;;;23.02;15.70;;;;;;;17.01;84.85;101387.03;4988980;28;20035;-69
2022/06/27 06:59:46;;;;;;;23.67;17.52;;;;;;;17.12;83.78;101375.09;4987419;28;20097;-69
2022/06/27 07:02:13;;;;;;;22.00;17.90;;;;;;;17.21;84.46;101372.34;4992177;28;20038;-69
2022/06/27 07:04:39;;;;;;;24.48;17.95;;;;;;;17.37;84.12;101395.69;4991605;28;20061;-69
2022/06/27 07:07:05;;;;;;;31.13;19.63;;;;;;;17.53;84.84;101401.50;4986756;28;20042;-69
2022/06/27 07:09:31;;;;;;;25.52;18.88;;;;;;;17.65;83.45;101400.34;4986566;28;20450;-69
2022/06/27 07:11:56;;;;;;;26.23;20.02;;;;;;;17.78;83.05;101384.47;4987660;28;20370;-69
2022/06/27 07:14:21;;;;;;;25.90;18.73;;;;;;;17.91;80.93;101372.31;4988483;28;20073;-69
2022/06/27 07:16:48;;;;;;;28.20;21.48;;;;;;;18.02;82.44;101370.25;5008059;28;20032;-69
2022/06/27 07:19:14;;;;;;;25.17;18.55;;;;;;;18.09;79.93;101382.44;5005903;28;20048;-69
2022/06/27 07:21:40;;;;;;;26.20;20.17;;;;;;;18.17;81.32;101398.19;4990334;28;20042;-69
2022/06/27 07:24:08;;;;;;;23.95;18.60;;;;;;;18.25;80.90;101406.59;4988608;28;20478;-69
2022/06/27 07:26:35;;;;;;;25.98;19.77;;;;;;;18.33;79.79;101420.50;4988338;28;20041;-68
2022/06/27 07:29:03;;;;;;;22.65;17.23;;;;;;;18.48;79.41;101428.31;4988911;28;20490;-70
2022/06/27 07:31:29;;;;;;;27.55;18.15;;;;;;;18.67;79.91;101432.91;4988926;28;20521;-70
2022/06/27 07:33:54;;;;;;;23.05;17.73;;;;;;;18.89;79.46;101432.59;4988797;28;20049;-69
2022/06/27 07:36:22;;;;;;;24.95;18.90;;;;;;;19.11;79.19;101421.13;4989242;28;20045;-69
2022/06/27 07:38:49;;;;;;;24.80;16.33;;;;;;;19.41;77.93;101432.03;4988698;28;20545;-70
2022/06/27 07:41:19;;;;;;;22.83;17.77;;;;;;;19.51;75.20;101428.19;4988688;28;20105;-69
2022/06/27 07:43:46;;;;;;;24.25;16.55;;;;;;;19.65;76.27;101423.22;4988339;28;20092;-70
2022/06/27 07:46:11;;;;;;;22.33;16.42;;;;;;;19.87;75.22;101444.84;4988049;28;20500;-70
2022/06/27 07:48:37;;;;;;;22.55;16.77;;;;;;;20.00;74.82;101437.00;4988608;28;20030;-69
2022/06/27 07:51:02;;;;;;;21.75;15.25;;;;;;;20.18;72.81;101431.47;4988756;28;20588;-70
2022/06/27 07:53:29;;;;;;;20.35;15.35;;;;;;;20.31;74.42;101436.59;4988447;28;20034;-69
2022/06/27 07:56:03;;;;;;;18.80;14.10;;;;;;;20.41;73.55;101450.31;4986368;28;20437;-70
2022/06/27 07:58:35;;;;;;;20.63;13.05;;;;;;;20.37;73.74;101456.16;4988714;28;20038;-70
2022/06/27 08:01:12;;;;;;;17.73;12.23;;;;;;;20.35;73.51;101454.59;4988823;28;20093;-69
2022/06/27 08:03:44;;;;;;;13.93;12.02;;;;;;;20.28;72.88;101470.06;5001386;28;20044;-69
2022/06/27 08:06:21;;;;;;;12.57;10.93;;;;;;;20.33;73.10;101474.13;5003687;28;20034;-69
2022/06/27 08:08:55;;;;;;;18.60;11.07;;;;;;;20.39;73.81;101462.41;5011301;28;20465;-70
2022/06/27 08:11:47;;;;;;;14.38;10.82;;;;;;;20.45;73.89;101460.03;4991963;28;20044;-70
2022/06/27 08:14:17;;;;;;;20.50;11.55;;;;;;;20.56;71.62;101462.56;4990117;28;20553;-69
2022/06/27 08:16:43;;;;;;;15.35;11.20;;;;;;;20.70;72.94;101472.16;4992042;28;20038;-69
2022/06/27 08:19:10;;;;;;;16.65;11.27;;;;;;;20.72;70.39;101459.06;4989430;28;20038;-70
2022/06/27 08:21:37;;;;;;;14.63;10.75;;;;;;;20.73;71.24;101449.72;4989423;28;20545;-70
2022/06/27 08:24:05;;;;;;;13.05;10.50;;;;;;;20.74;70.73;101455.09;4992143;28;20120;-70
2022/06/27 08:26:31;;;;;;;15.18;10.20;;;;;;;20.78;70.06;101463.94;4991967;28;20133;-70
2022/06/27 08:29:00;;;;;;;16.95;10.73;;;;;;;20.75;70.74;101473.44;4991621;28;20022;-70
2022/06/27 08:31:27;;;;;;;14.30;10.07;;;;;;;20.73;72.11;101485.69;4996176;28;20034;-69
2022/06/27 08:33:58;;;;;;;15.10;9.48;;;;;;;20.71;70.35;101485.00;5006275;28;20084;-70
2022/06/27 08:36:27;;;;;;;13.32;9.43;;;;;;;20.65;69.98;101492.00;5007869;28;20037;-70
2022/06/27 08:38:53;;;;;;;10.95;7.97;;;;;;;20.53;70.79;101490.56;5010423;28;20042;-69
2022/06/27 08:41:22;;;;;;;12.75;9.07;;;;;;;20.47;71.65;101497.59;4990408;28;20129;-70
2022/06/27 08:43:52;;;;;;;12.25;9.45;;;;;;;20.38;70.71;101490.22;4989598;28;20516;-70
2022/06/27 08:46:18;;;;;;;17.00;10.25;;;;;;;20.33;71.52;101493.47;5008637;28;20077;-70
2022/06/27 08:48:47;;;;;;;14.63;9.38;;;;;;;20.26;71.21;101494.25;4999691;28;20990;-70
2022/06/27 08:51:13;;;;;;;13.73;9.57;;;;;;;20.23;71.83;101489.03;5005429;28;20072;-70
2022/06/27 08:53:40;;;;;;;14.60;10.05;;;;;;;20.23;71.83;101489.03;5010946;28;20046;-70
2022/06/27 08:56:10;;;;;;;15.35;9.88;;;;;;;20.24;71.96;101485.25;5007172;28;20045;-70
2022/06/27 08:58:37;;;;;;;13.38;8.82;;;;;;;20.26;72.41;101485.97;5001126;28;20038;-69
2022/06/27 09:01:04;;;;;;;14.38;9.65;;;;;;;20.25;73.04;101490.63;4991429;28;20113;-70
2022/06/27 09:03:30;;;;;;;11.70;9.27;;;;;;;20.29;72.08;101496.69;4996676;28;20116;-70
2022/06/27 09:06:07;;;;;;;16.00;9.05;;;;;;;20.42;71.91;101504.56;5010425;28;20042;-70
2022/06/27 09:08:36;;;;;;;10.05;8.95;;;;;;;20.54;71.95;101515.25;5010488;28;20050;-70
2022/06/27 09:11:03;;;;;;;11.95;9.00;;;;;;;20.69;70.92;101517.44;5001412;28;20088;-70
2022/06/27 09:13:30;;;;;;;18.25;9.93;;;;;;;20.75;69.06;101512.16;5011299;28;20053;-69
2022/06/27 09:16:04;;;;;;;16.73;11.48;;;;;;;20.88;70.11;101506.19;5008894;28;20116;-70
2022/06/27 09:18:36;;;;;;;17.10;10.57;;;;;;;21.05;71.22;101499.72;5006940;28;20505;-70
2022/06/27 09:21:09;;;;;;;12.88;10.35;;;;;;;21.20;69.25;101486.16;5007653;28;20099;-70
2022/06/27 09:23:58;;;;;;;18.45;11.13;;;;;;;21.47;69.10;101492.53;4999628;28;20124;-70
2022/06/27 09:26:38;;;;;;;16.00;10.35;;;;;;;21.63;67.80;101498.13;5004659;28;20072;-70
2022/06/27 09:29:10;;;;;;;12.23;10.52;;;;;;;21.72;67.79;101504.56;5007954;28;20037;-70
2022/06/27 09:31:43;;;;;;;16.63;11.63;;;;;;;21.69;65.53;101510.47;5008628;28;20489;-70
2022/06/27 09:34:16;;;;;;;14.05;10.55;;;;;;;21.70;64.88;101503.91;5006898;28;20042;-70
2022/06/27 09:36:56;;;;;;;18.38;11.15;;;;;;;21.69;64.16;101505.78;5005485;28;20143;-70
2022/06/27 09:39:29;;;;;;;12.82;9.93;;;;;;;21.78;65.15;101502.03;4987820;28;20064;-70
2022/06/27 09:42:14;;;;;;;14.55;10.80;;;;;;;21.87;65.31;101497.38;4988344;28;20581;-70
2022/06/27 09:44:42;;;;;;;14.65;10.45;;;;;;;21.87;65.20;101491.84;4991052;28;20069;-70
2022/06/27 09:47:18;;;;;;;17.00;10.50;;;;;;;22.02;64.96;101492.03;4991071;28;20449;-70
2022/06/27 09:49:56;;;;;;;15.70;10.02;;;;;;;22.23;64.04;101499.88;5007101;28;20112;-70
2022/06/27 09:52:25;;;;;;;17.85;10.85;;;;;;;22.47;63.14;101499.03;4991514;28;20031;-69
2022/06/27 09:54:54;;;;;;;15.07;11.85;;;;;;;22.64;61.36;101493.31;4994741;28;20119;-71
2022/06/27 09:57:21;;;;;;;12.43;9.77;;;;;;;22.89;63.05;101493.31;5008522;28;20065;-70
2022/06/27 09:59:50;;;;;;;14.40;10.00;;;;;;;23.07;63.23;101493.97;5006438;28;20542;-70
2022/06/27 10:02:19;;;;;;;14.90;9.80;;;;;;;23.22;60.38;101488.53;5009959;28;20049;-70
2022/06/27 10:04:46;;;;;;;14.07;10.13;;;;;;;23.11;57.95;101487.03;4992291;28;20097;-70
2022/06/27 10:07:13;;;;;;;14.50;9.07;;;;;;;23.07;58.48;101479.22;4990276;28;20034;-69
2022/06/27 10:09:40;;;;;;;10.25;7.68;;;;;;;23.05;59.50;101476.63;4995991;28;20034;-70
2022/06/27 10:12:31;;;;;;;12.40;8.52;;;;;;;23.13;61.25;101479.41;5008784;28;20030;-70
2022/06/27 10:15:14;;;;;;;12.68;7.50;;;;;;;23.25;62.75;101476.22;5022338;28;20076;-70
2022/06/27 10:17:46;;;;;;;15.65;7.70;;;;;;;23.32;57.80;101471.72;4990626;28;20038;-70
2022/06/27 10:20:15;;;;;;;11.20;6.83;;;;;;;23.40;56.44;101468.88;4989664;28;20727;-70
2022/06/27 10:22:46;;;;;;;8.32;6.57;;;;;;;23.67;60.30;101467.56;4990618;28;20938;-70
2022/06/27 10:25:27;;;;;;;13.70;8.35;;;;;;;24.06;60.41;101473.09;4989127;28;20443;-70
2022/06/27 10:28:11;;;;;;;13.55;8.23;;;;;;;24.13;58.87;101473.19;4990314;28;20505;-70
2022/06/27 10:30:38;;;;;;;11.48;8.30;;;;;;;24.10;55.59;101463.28;4989849;28;20046;-70
2022/06/27 10:33:25;;;;;;;13.25;7.13;;;;;;;24.21;56.09;101472.28;4998002;28;20548;-70
2022/06/27 10:36:05;;;;;;;10.02;5.90;;;;;;;24.27;56.05;101475.16;4990165;28;20191;-71
2022/06/27 10:38:33;;;;;;;8.85;5.43;;;;;;;24.18;52.08;101470.72;4990525;28;20069;-70
2022/06/27 10:41:03;;;;;;;10.45;5.47;;;;;;;24.06;52.24;101478.63;4990436;28;20058;-71
2022/06/27 10:43:42;;;;;;;9.65;5.47;;;;;;;23.97;54.49;101484.41;4990379;28;20046;-70
2022/06/27 10:46:11;;;;;;;7.90;5.55;;;;;;;23.96;57.29;101483.53;4990132;28;20034;-69
2022/06/27 10:48:38;;;;;;;10.00;6.65;;;;;;;23.88;56.44;101486.41;4989626;28;20030;-70
2022/06/27 10:51:19;;;;;;;11.10;6.63;;;;;;;23.78;57.44;101483.84;4990168;28;20315;-69
2022/06/27 10:53:45;;;;;;;7.78;5.82;;;;;;;23.73;57.84;101483.50;4989847;28;20039;-70
2022/06/27 10:56:26;;;;;;;7.88;5.10;;;;;;;23.72;58.28;101480.91;4989826;28;20030;-71
2022/06/27 10:58:51;;;;;;;7.18;5.10;;;;;;;23.65;58.76;101473.31;4990135;28;20042;-70
2022/06/27 11:01:18;;;;;;;7.20;5.18;;;;;;;23.52;57.19;101486.88;4989819;28;20486;-70
2022/06/27 11:03:44;;;;;;;7.45;4.18;;;;;;;23.36;56.83;101482.28;4997726;28;20085;-70
2022/06/27 11:06:13;;;;;;;7.47;5.03;;;;;;;23.23;58.82;101489.44;4990054;28;20074;-70
2022/06/27 11:08:40;;;;;;;8.40;5.47;;;;;;;23.08;58.42;101484.63;4989770;28;20257;-70
2022/06/27 11:11:06;;;;;;;11.07;6.70;;;;;;;22.97;57.54;101484.13;4990050;28;20026;-70
2022/06/27 11:13:53;;;;;;;12.88;6.43;;;;;;;22.92;60.95;101484.63;4990021;28;20494;-70
2022/06/27 11:16:23;;;;;;;8.13;5.72;;;;;;;22.81;59.77;101487.75;4989642;28;20486;-70
2022/06/27 11:18:54;;;;;;;13.23;6.22;;;;;;;22.79;60.62;101482.38;4988890;28;20046;-70
2022/06/27 11:21:22;;;;;;;10.35;5.75;;;;;;;22.74;60.87;101482.03;4989952;28;20125;-71
2022/06/27 11:23:51;;;;;;;7.53;5.28;;;;;;;22.86;61.67;101496.41;4989534;28;20517;-70